createdAt,value
2018-04-09T00:01:59.003Z,84.81
2018-04-09T00:04:26.731Z,85.03
2018-04-09T00:06:54.366Z,84.87
2018-04-09T00:09:22.020Z,85.04
2018-04-09T00:11:50.529Z,85.11
2018-04-09T00:14:18.122Z,85.56
2018-04-09T00:16:45.709Z,85.81
2018-04-09T00:19:13.322Z,88.98
2018-04-09T00:21:40.912Z,89.45
2018-04-09T00:24:08.615Z,87.76
2018-04-09T00:26:36.194Z,88.58
2018-04-09T00:29:03.798Z,88.21
2018-04-09T00:31:31.376Z,88.62
2018-04-09T00:33:58.956Z,88.84
2018-04-09T00:36:26.538Z,88.92
2018-04-09T00:38:54.220Z,88.76
2018-04-09T00:41:21.804Z,89.00
2018-04-09T00:43:49.379Z,88.99
2018-04-09T00:46:16.959Z,88.79
2018-04-09T00:48:44.639Z,88.66
2018-04-09T00:51:12.220Z,89.04
2018-04-09T00:53:51.938Z,89.56
2018-04-09T00:56:19.603Z,89.55
2018-04-09T00:58:47.188Z,89.73
2018-04-09T01:01:14.776Z,88.82
2018-04-09T01:03:42.351Z,89.44
2018-04-09T01:06:09.935Z,91.43
2018-04-09T01:08:37.522Z,91.73
2018-04-09T01:11:05.104Z,91.52
2018-04-09T01:13:32.682Z,91.08
2018-04-09T01:16:00.263Z,89.98
2018-04-09T01:18:27.844Z,89.75
2018-04-09T01:20:55.431Z,88.99
2018-04-09T01:23:23.011Z,89.69
2018-04-09T01:25:50.688Z,88.78
2018-04-09T01:28:18.262Z,89.64
2018-04-09T01:30:45.842Z,90.44
2018-04-09T01:33:13.424Z,90.61
2018-04-09T01:35:41.007Z,92.12
2018-04-09T01:38:08.595Z,91.90
2018-04-09T01:40:36.213Z,91.11
2018-04-09T01:43:03.799Z,90.57
2018-04-09T01:45:31.382Z,90.80
2018-04-09T01:47:58.962Z,91.64
2018-04-09T01:50:26.547Z,91.26
2018-04-09T01:52:54.135Z,91.54
2018-04-09T01:55:21.722Z,91.78
2018-04-09T01:57:49.335Z,91.99
2018-04-09T02:00:17.004Z,91.49
2018-04-09T02:02:44.588Z,91.23
2018-04-09T02:05:12.171Z,91.57
2018-04-09T02:07:39.835Z,92.23
2018-04-09T02:10:07.449Z,92.19
2018-04-09T02:12:35.176Z,92.08
2018-04-09T02:15:02.823Z,90.82
2018-04-09T02:17:30.436Z,91.10
2018-04-09T02:19:58.914Z,92.08
2018-04-09T02:22:26.529Z,92.52
2018-04-09T02:24:54.116Z,91.74
2018-04-09T02:27:21.807Z,91.86
2018-04-09T02:29:49.432Z,92.12
2018-04-09T02:32:17.065Z,93.30
2018-04-09T02:34:44.658Z,94.33
2018-04-09T02:37:12.237Z,92.47
2018-04-09T02:39:39.812Z,93.23
2018-04-09T02:42:07.393Z,93.83
2018-04-09T02:44:34.971Z,94.28
2018-04-09T02:47:02.597Z,94.03
2018-04-09T02:49:30.255Z,93.60
2018-04-09T02:51:57.846Z,93.05
2018-04-09T02:54:25.581Z,93.17
2018-04-09T02:56:53.166Z,93.46
2018-04-09T02:59:20.747Z,93.60
2018-04-09T03:01:48.336Z,93.13
2018-04-09T03:04:15.963Z,93.76
2018-04-09T03:06:43.556Z,93.47
2018-04-09T03:09:11.192Z,93.70
2018-04-09T03:11:38.779Z,92.86
2018-04-09T03:14:06.367Z,93.97
2018-04-09T03:16:33.955Z,92.88
2018-04-09T03:19:01.539Z,93.34
2018-04-09T03:21:29.127Z,93.83
2018-04-09T03:23:56.723Z,93.87
2018-04-09T03:26:24.335Z,93.99
2018-04-09T03:28:51.918Z,93.60
2018-04-09T03:31:19.492Z,93.33
2018-04-09T03:33:47.077Z,94.12
2018-04-09T03:36:14.732Z,94.30
2018-04-09T03:38:42.314Z,94.43
2018-04-09T03:41:09.955Z,94.17
2018-04-09T03:43:37.540Z,94.35
2018-04-09T03:46:05.153Z,94.37
2018-04-09T03:48:32.737Z,94.91
2018-04-09T03:51:00.321Z,95.30
2018-04-09T03:53:27.960Z,95.18
2018-04-09T03:55:55.542Z,95.41
2018-04-09T03:58:23.166Z,94.92
2018-04-09T04:00:50.847Z,94.79
2018-04-09T04:03:18.428Z,95.75
2018-04-09T04:05:46.076Z,95.50
2018-04-09T04:08:13.652Z,95.31
2018-04-09T04:10:41.227Z,95.26
2018-04-09T04:13:08.804Z,95.63
2018-04-09T04:15:48.302Z,95.67
2018-04-09T04:18:35.535Z,95.60
2018-04-09T04:21:14.977Z,94.87
2018-04-09T04:23:42.621Z,95.33
2018-04-09T04:26:10.197Z,96.03
2018-04-09T04:28:37.811Z,95.49
2018-04-09T04:31:05.442Z,94.37
2018-04-09T04:33:33.009Z,95.38
2018-04-09T04:36:00.588Z,96.30
2018-04-09T04:38:28.172Z,95.49
2018-04-09T04:40:55.779Z,94.31
2018-04-09T04:43:23.410Z,94.10
2018-04-09T04:45:51.042Z,94.26
2018-04-09T04:48:18.636Z,94.08
2018-04-09T04:50:46.218Z,94.58
2018-04-09T04:53:13.858Z,94.82
2018-04-09T04:55:41.443Z,94.55
2018-04-09T04:58:09.085Z,94.27
2018-04-09T05:00:36.686Z,94.65
2018-04-09T05:03:04.820Z,95.58
2018-04-09T05:05:32.516Z,95.89
2018-04-09T05:08:00.106Z,95.79
2018-04-09T05:10:27.690Z,95.10
2018-04-09T05:12:55.271Z,95.21
2018-04-09T05:15:22.851Z,95.31
2018-04-09T05:17:50.427Z,95.58
2018-04-09T05:20:18.054Z,95.63
2018-04-09T05:22:45.667Z,95.43
2018-04-09T05:25:13.247Z,95.36
2018-04-09T05:27:40.943Z,94.99
2018-04-09T05:30:08.531Z,95.54
2018-04-09T05:32:36.116Z,95.37
2018-04-09T05:35:03.699Z,95.33
2018-04-09T05:37:31.283Z,95.36
2018-04-09T05:39:58.872Z,94.79
2018-04-09T05:42:26.659Z,94.21
2018-04-09T05:44:54.276Z,94.39
2018-04-09T05:47:21.904Z,94.28
2018-04-09T05:49:49.484Z,94.29
2018-04-09T05:52:17.104Z,93.71
2018-04-09T05:54:44.690Z,93.18
2018-04-09T05:57:12.271Z,93.11
2018-04-09T05:59:39.884Z,92.82
2018-04-09T06:02:07.669Z,92.59
2018-04-09T06:04:35.372Z,92.34
2018-04-09T06:07:02.956Z,91.95
2018-04-09T06:09:30.596Z,91.06
2018-04-09T06:11:58.356Z,90.22
2018-04-09T06:14:26.068Z,90.07
2018-04-09T06:16:53.683Z,89.40
2018-04-09T06:19:21.263Z,88.50
2018-04-09T06:21:48.998Z,86.87
2018-04-09T06:24:16.575Z,86.06
2018-04-09T06:26:44.147Z,86.00
2018-04-09T06:29:11.727Z,86.26
2018-04-09T06:31:39.391Z,86.61
2018-04-09T06:34:07.065Z,84.81
2018-04-09T06:36:34.651Z,83.09
2018-04-09T06:39:02.339Z,82.10
2018-04-09T06:41:29.957Z,82.73
2018-04-09T06:43:57.626Z,81.69
2018-04-09T06:46:25.269Z,79.53
2018-04-09T06:48:52.860Z,79.34
2018-04-09T06:51:20.555Z,79.46
2018-04-09T06:53:48.361Z,79.37
2018-04-09T06:56:16.005Z,80.01
2018-04-09T06:58:43.592Z,79.62
2018-04-09T07:01:11.203Z,78.17
2018-04-09T07:03:38.795Z,77.12
2018-04-09T07:06:06.382Z,75.81
2018-04-09T07:08:33.974Z,75.91
2018-04-09T07:11:01.564Z,75.56
2018-04-09T07:13:29.148Z,75.21
2018-04-09T07:15:56.744Z,75.42
2018-04-09T07:18:24.322Z,74.54
2018-04-09T07:20:51.939Z,74.29
2018-04-09T07:23:19.567Z,74.58
2018-04-09T07:25:47.892Z,73.38
2018-04-09T07:28:15.478Z,73.19
2018-04-09T07:30:43.068Z,71.46
2018-04-09T07:33:10.760Z,71.45
2018-04-09T07:35:38.483Z,71.35
2018-04-09T07:38:06.076Z,71.51
2018-04-09T07:40:33.663Z,70.96
2018-04-09T07:43:01.280Z,71.56
2018-04-09T07:45:29.028Z,71.78
2018-04-09T07:47:56.864Z,70.66
2018-04-09T07:50:24.458Z,69.04
2018-04-09T07:52:52.044Z,68.72
2018-04-09T07:55:19.780Z,69.33
2018-04-09T07:57:47.415Z,69.31
2018-04-09T08:00:15.070Z,68.17
2018-04-09T08:02:42.651Z,67.81
2018-04-09T08:05:10.296Z,68.74
2018-04-09T08:07:37.991Z,66.96
2018-04-09T08:10:06.836Z,66.50
2018-04-09T08:12:34.440Z,66.41
2018-04-09T08:15:02.032Z,66.64
2018-04-09T08:17:29.619Z,65.18
2018-04-09T08:19:57.204Z,64.71
2018-04-09T08:22:24.803Z,64.15
2018-04-09T08:24:52.419Z,63.01
2018-04-09T08:27:20.008Z,62.42
2018-04-09T08:29:47.586Z,62.02
2018-04-09T08:32:15.293Z,60.99
2018-04-09T08:34:42.875Z,60.35
2018-04-09T08:37:10.459Z,61.01
2018-04-09T08:39:38.070Z,59.09
2018-04-09T08:42:05.686Z,59.56
2018-04-09T08:44:33.312Z,57.61
2018-04-09T08:47:00.915Z,58.65
2018-04-09T08:49:28.584Z,56.11
2018-04-09T08:51:56.383Z,56.81
2018-04-09T08:54:23.966Z,56.01
2018-04-09T08:56:51.577Z,56.39
2018-04-09T08:59:19.155Z,54.37
2018-04-09T09:01:46.935Z,55.96
2018-04-09T09:04:14.640Z,55.99
2018-04-09T09:06:42.616Z,55.92
2018-04-09T09:09:10.454Z,55.13
2018-04-09T09:11:38.227Z,53.28
2018-04-09T09:14:05.823Z,51.89
2018-04-09T09:16:33.494Z,53.16
2018-04-09T09:19:01.114Z,51.64
2018-04-09T09:21:28.718Z,53.04
2018-04-09T09:23:56.302Z,53.12
2018-04-09T09:26:23.914Z,53.03
2018-04-09T09:28:51.530Z,54.30
2018-04-09T09:31:19.115Z,54.25
2018-04-09T09:33:47.783Z,52.98
2018-04-09T09:36:15.371Z,51.77
2018-04-09T09:38:42.974Z,52.33
2018-04-09T09:41:10.585Z,50.38
2018-04-09T09:43:38.171Z,51.11
2018-04-09T09:46:05.759Z,51.07
2018-04-09T09:48:33.342Z,50.20
2018-04-09T09:51:00.946Z,52.18
2018-04-09T09:53:28.643Z,52.64
2018-04-09T09:55:56.235Z,51.62
2018-04-09T09:58:23.865Z,49.22
2018-04-09T10:00:51.717Z,50.65
2018-04-09T10:03:24.922Z,51.74
2018-04-09T10:05:52.590Z,48.95
2018-04-09T10:08:21.079Z,46.58
2018-04-09T10:10:48.666Z,49.40
2018-04-09T10:13:16.253Z,47.72
2018-04-09T10:15:43.834Z,48.11
2018-04-09T10:18:11.423Z,45.79
2018-04-09T10:20:39.015Z,46.56
2018-04-09T10:23:06.604Z,49.12
2018-04-09T10:25:34.253Z,47.29
2018-04-09T10:28:01.840Z,46.04
2018-04-09T10:30:29.423Z,45.95
2018-04-09T10:32:57.024Z,46.23
2018-04-09T10:35:24.642Z,46.32
2018-04-09T10:37:52.279Z,43.62
2018-04-09T10:40:19.870Z,43.08
2018-04-09T10:42:48.160Z,42.11
2018-04-09T10:45:15.786Z,42.22
2018-04-09T10:47:44.385Z,44.10
2018-04-09T10:50:12.004Z,43.09
2018-04-09T10:52:39.618Z,44.87
2018-04-09T10:55:07.389Z,45.62
2018-04-09T10:57:34.982Z,43.60
2018-04-09T11:00:02.573Z,44.11
2018-04-09T11:02:30.170Z,44.29
2018-04-09T11:04:57.838Z,44.17
2018-04-09T11:07:25.507Z,44.29
2018-04-09T11:09:53.166Z,43.68
2018-04-09T11:12:20.764Z,43.21
2018-04-09T11:14:48.387Z,42.93
2018-04-09T11:17:16.047Z,43.37
2018-04-09T11:19:43.814Z,41.40
2018-04-09T11:22:11.471Z,40.46
2018-04-09T11:24:39.060Z,42.35
2018-04-09T11:27:06.731Z,42.43
2018-04-09T11:29:34.327Z,42.22
2018-04-09T11:32:01.949Z,41.07
2018-04-09T11:34:29.535Z,41.81
2018-04-09T11:36:57.125Z,42.28
2018-04-09T11:39:25.346Z,42.40
2018-04-09T11:41:52.970Z,41.28
2018-04-09T11:44:20.598Z,43.84
2018-04-09T11:46:48.181Z,42.44
2018-04-09T11:49:15.765Z,42.11
2018-04-09T11:51:43.383Z,41.37
2018-04-09T11:54:10.975Z,41.19
2018-04-09T11:56:38.563Z,43.14
2018-04-09T11:59:06.148Z,42.12
2018-04-09T12:01:33.831Z,42.76
2018-04-09T12:04:01.492Z,40.97
2018-04-09T12:06:29.365Z,39.22
2018-04-09T12:08:56.966Z,41.98
2018-04-09T12:11:24.548Z,39.37
2018-04-09T12:13:52.257Z,40.59
2018-04-09T12:16:20.012Z,38.30
2018-04-09T12:18:47.589Z,39.10
2018-04-09T12:21:15.196Z,40.49
2018-04-09T12:23:42.769Z,39.05
2018-04-09T12:26:10.386Z,40.65
2018-04-09T12:28:38.006Z,39.07
2018-04-09T12:31:05.594Z,39.38
2018-04-09T12:33:33.208Z,38.23
2018-04-09T12:36:00.785Z,38.48
2018-04-09T12:38:28.365Z,37.30
2018-04-09T12:40:55.940Z,38.77
2018-04-09T12:43:23.533Z,40.14
2018-04-09T12:45:51.169Z,39.50
2018-04-09T12:48:18.753Z,39.50
2018-04-09T12:50:46.385Z,40.30
2018-04-09T12:53:14.081Z,37.61
2018-04-09T12:55:41.745Z,38.71
2018-04-09T12:58:09.359Z,38.09
2018-04-09T13:00:36.932Z,36.97
2018-04-09T13:03:04.579Z,38.10
2018-04-09T13:05:32.153Z,38.48
2018-04-09T13:07:59.766Z,37.96
2018-04-09T13:10:27.377Z,36.66
2018-04-09T13:12:54.953Z,38.85
2018-04-09T13:15:22.644Z,37.63
2018-04-09T13:17:50.254Z,37.27
2018-04-09T13:20:17.966Z,38.72
2018-04-09T13:22:45.557Z,37.36
2018-04-09T13:25:13.188Z,37.90
2018-04-09T13:27:40.783Z,38.23
2018-04-09T13:30:08.372Z,36.76
2018-04-09T13:32:35.972Z,37.64
2018-04-09T13:35:03.632Z,37.35
2018-04-09T13:37:31.222Z,39.19
2018-04-09T13:39:58.800Z,37.40
2018-04-09T13:42:26.413Z,37.65
2018-04-09T13:44:53.993Z,36.66
2018-04-09T13:47:21.644Z,37.15
2018-04-09T13:49:49.229Z,36.96
2018-04-09T13:52:16.809Z,39.01
2018-04-09T13:54:44.384Z,37.04
2018-04-09T13:57:11.961Z,36.84
2018-04-09T13:59:39.549Z,36.55
2018-04-09T14:02:07.128Z,36.04
2018-04-09T14:04:34.700Z,35.83
2018-04-09T14:07:02.290Z,36.59
2018-04-09T14:09:29.872Z,36.43
2018-04-09T14:11:57.461Z,37.46
2018-04-09T14:14:25.040Z,37.48
2018-04-09T14:16:52.626Z,38.19
2018-04-09T14:19:20.201Z,36.42
2018-04-09T14:21:47.812Z,37.58
2018-04-09T14:24:15.393Z,37.13
2018-04-09T14:26:42.972Z,36.70
2018-04-09T14:29:10.550Z,36.01
2018-04-09T14:31:38.313Z,37.61
2018-04-09T14:34:05.920Z,38.71
2018-04-09T14:36:33.502Z,37.55
2018-04-09T14:39:01.097Z,37.61
2018-04-09T14:41:28.708Z,37.08
2018-04-09T14:43:56.296Z,36.82
2018-04-09T14:46:23.904Z,38.17
2018-04-09T14:48:51.489Z,37.15
2018-04-09T14:51:19.071Z,38.95
2018-04-09T14:53:47.577Z,39.81
2018-04-09T14:56:15.157Z,38.16
2018-04-09T14:58:42.750Z,43.02
2018-04-09T15:01:10.337Z,41.16
2018-04-09T15:03:37.925Z,39.15
2018-04-09T15:06:05.509Z,39.29
2018-04-09T15:08:33.117Z,39.65
2018-04-09T15:11:00.697Z,39.30
2018-04-09T15:13:28.325Z,41.94
2018-04-09T15:15:55.909Z,39.82
2018-04-09T15:18:23.504Z,41.86
2018-04-09T15:20:51.108Z,41.07
2018-04-09T15:23:18.689Z,39.99
2018-04-09T15:25:46.304Z,41.08
2018-04-09T15:28:13.882Z,41.08
2018-04-09T15:30:41.509Z,38.13
2018-04-09T15:33:09.096Z,39.98
2018-04-09T15:35:36.688Z,38.13
2018-04-09T15:38:04.273Z,37.60
2018-04-09T15:40:32.256Z,37.38
2018-04-09T15:42:59.841Z,36.78
2018-04-09T15:45:27.452Z,36.99
2018-04-09T15:47:55.066Z,37.97
2018-04-09T15:50:22.655Z,36.88
2018-04-09T15:52:50.270Z,36.19
2018-04-09T15:55:17.854Z,36.77
2018-04-09T15:57:45.470Z,36.49
2018-04-09T16:00:13.053Z,37.46
2018-04-09T16:02:40.686Z,38.46
2018-04-09T16:05:08.269Z,39.38
2018-04-09T16:07:39.793Z,39.31
2018-04-09T16:10:07.383Z,39.36
2018-04-09T16:12:35.000Z,41.36
2018-04-09T16:15:02.581Z,44.21
2018-04-09T16:17:30.169Z,43.56
2018-04-09T16:19:57.758Z,43.08
2018-04-09T16:22:25.345Z,44.12
2018-04-09T16:24:52.925Z,44.51
2018-04-09T16:27:20.517Z,45.32
2018-04-09T16:29:48.162Z,44.42
2018-04-09T16:32:15.753Z,45.88
2018-04-09T16:34:43.340Z,45.76
2018-04-09T16:37:10.920Z,46.19
2018-04-09T16:39:38.537Z,47.21
2018-04-09T16:42:06.146Z,47.03
2018-04-09T16:44:33.753Z,46.98
2018-04-09T16:47:01.339Z,47.60
2018-04-09T16:49:31.889Z,47.74
2018-04-09T16:51:59.661Z,48.13
2018-04-09T16:54:27.273Z,48.35
2018-04-09T16:56:54.887Z,49.37
2018-04-09T16:59:22.475Z,49.23
2018-04-09T17:01:50.094Z,49.58
2018-04-09T17:04:17.676Z,49.95
2018-04-09T17:06:45.255Z,50.22
2018-04-09T17:09:13.513Z,50.63
2018-04-09T17:11:41.257Z,50.82
2018-04-09T17:14:08.837Z,51.05
2018-04-09T17:16:36.418Z,51.25
2018-04-09T17:19:03.993Z,51.43
2018-04-09T17:21:31.569Z,51.85
2018-04-09T17:23:59.193Z,52.04
2018-04-09T17:26:26.773Z,52.37
2018-04-09T17:28:54.354Z,52.70
2018-04-09T17:31:21.934Z,52.94
2018-04-09T17:33:49.522Z,53.40
2018-04-09T17:36:17.098Z,53.57
2018-04-09T17:38:44.679Z,54.01
2018-04-09T17:41:12.256Z,54.45
2018-04-09T17:43:39.834Z,54.86
2018-04-09T17:46:07.420Z,55.12
2018-04-09T17:48:35.026Z,55.23
2018-04-09T17:51:02.612Z,55.81
2018-04-09T17:53:30.193Z,55.94
2018-04-09T17:55:57.824Z,56.42
2018-04-09T17:58:25.399Z,56.66
2018-04-09T18:00:52.989Z,56.75
2018-04-09T18:03:20.618Z,57.12
2018-04-09T18:05:48.226Z,56.92
2018-04-09T18:08:16.820Z,57.35
2018-04-09T18:10:53.774Z,57.32
2018-04-09T18:13:21.388Z,57.64
2018-04-09T18:15:49.005Z,58.24
2018-04-09T18:18:16.581Z,58.51
2018-04-09T18:20:44.169Z,59.11
2018-04-09T18:23:11.745Z,60.16
2018-04-09T18:25:39.326Z,60.84
2018-04-09T18:28:06.909Z,60.93
2018-04-09T18:30:34.537Z,61.32
2018-04-09T18:33:02.121Z,61.51
2018-04-09T18:35:29.705Z,61.60
2018-04-09T18:37:57.282Z,62.09
2018-04-09T18:40:24.925Z,62.17
2018-04-09T18:42:52.501Z,62.35
2018-04-09T18:45:20.089Z,62.83
2018-04-09T18:47:47.678Z,63.10
2018-04-09T18:50:15.265Z,63.29
2018-04-09T18:52:42.954Z,63.29
2018-04-09T18:55:10.541Z,63.40
2018-04-09T18:57:38.790Z,63.73
2018-04-09T19:00:06.527Z,63.49
2018-04-09T19:02:34.112Z,63.76
2018-04-09T19:05:02.644Z,64.04
2018-04-09T19:07:30.333Z,63.73
2018-04-09T19:09:57.917Z,63.71
2018-04-09T19:12:25.504Z,63.58
2018-04-09T19:14:53.082Z,64.19
2018-04-09T19:17:20.747Z,64.13
2018-04-09T19:19:48.963Z,64.16
2018-04-09T19:22:18.114Z,64.32
2018-04-09T19:24:45.762Z,64.42
2018-04-09T19:27:14.793Z,64.43
2018-04-09T19:29:48.913Z,64.73
2018-04-09T19:32:17.486Z,64.86
2018-04-09T19:34:50.687Z,64.99
2018-04-09T19:37:26.220Z,65.13
2018-04-09T19:42:59.323Z,65.92
2018-04-09T19:45:27.286Z,66.35
2018-04-09T19:47:55.032Z,66.22
2018-04-09T19:50:22.685Z,66.32
2018-04-09T19:52:50.333Z,66.80
2018-04-09T19:55:17.928Z,67.15
2018-04-09T19:57:45.845Z,67.09
2018-04-09T20:00:13.487Z,67.45
2018-04-09T20:02:41.070Z,67.33
2018-04-09T20:05:09.307Z,67.66
2018-04-09T20:07:36.933Z,67.43
2018-04-09T20:10:05.051Z,68.08
2018-04-09T20:12:32.818Z,68.38
2018-04-09T20:15:00.449Z,68.55
2018-04-09T20:17:28.176Z,68.62
2018-04-09T20:20:14.897Z,69.16
2018-04-09T20:22:42.617Z,69.59
2018-04-09T20:25:10.249Z,69.86
2018-04-09T20:27:38.904Z,69.94
2018-04-09T20:30:06.486Z,70.14
2018-04-09T20:32:34.079Z,70.17
2018-04-09T20:35:01.663Z,70.35
2018-04-09T20:37:29.244Z,70.78
2018-04-09T20:39:56.885Z,70.77
2018-04-09T20:42:24.470Z,70.82
2018-04-09T20:44:52.146Z,71.04
2018-04-09T20:47:19.856Z,71.02
2018-04-09T20:49:47.438Z,71.32
2018-04-09T20:52:15.055Z,71.32
2018-04-09T20:54:42.645Z,71.36
2018-04-09T20:57:10.262Z,71.86
2018-04-09T20:59:37.845Z,71.58
2018-04-09T21:02:05.459Z,72.01
2018-04-09T21:04:33.046Z,71.86
2018-04-09T21:07:00.631Z,72.14
2018-04-09T21:09:28.266Z,72.25
2018-04-09T21:11:55.854Z,72.46
2018-04-09T21:14:23.730Z,73.26
2018-04-09T21:16:51.319Z,73.45
2018-04-09T21:19:18.898Z,73.39
2018-04-09T21:21:46.486Z,73.77
2018-04-09T21:24:14.071Z,74.08
2018-04-09T21:26:41.690Z,74.09
2018-04-09T21:29:09.273Z,73.84
2018-04-09T21:31:36.859Z,73.75
2018-04-09T21:34:04.518Z,73.79
2018-04-09T21:36:32.105Z,73.90
2018-04-09T21:38:59.703Z,74.46
2018-04-09T21:41:27.316Z,74.69
2018-04-09T21:43:54.906Z,74.74
2018-04-09T21:46:22.490Z,74.82
2018-04-09T21:48:50.077Z,75.06
2018-04-09T21:51:17.661Z,75.34
2018-04-09T21:53:45.253Z,75.30
2018-04-09T21:56:12.866Z,75.55
2018-04-09T21:58:40.544Z,75.36
2018-04-09T22:01:08.141Z,75.20
2018-04-09T22:03:35.748Z,75.06
2018-04-09T22:06:03.430Z,75.16
2018-04-09T22:08:31.012Z,75.20
2018-04-09T22:10:58.624Z,75.07
2018-04-09T22:13:26.209Z,75.09
2018-04-09T22:15:53.833Z,75.28
2018-04-09T22:18:21.421Z,75.19
2018-04-09T22:20:49.006Z,75.29
2018-04-09T22:23:16.628Z,75.32
2018-04-09T22:25:44.222Z,75.30
2018-04-09T22:28:11.832Z,75.61
2018-04-09T22:30:39.422Z,75.45
2018-04-09T22:33:07.037Z,75.73
2018-04-09T22:35:34.622Z,75.74
2018-04-09T22:38:02.213Z,75.99
2018-04-09T22:40:29.797Z,76.00
2018-04-09T22:42:57.413Z,76.11
2018-04-09T22:45:25.061Z,76.23
2018-04-09T22:47:52.646Z,76.49
2018-04-09T22:50:20.236Z,76.49
2018-04-09T22:52:47.861Z,76.34
2018-04-09T22:55:15.450Z,76.29
2018-04-09T22:57:43.038Z,76.49
2018-04-09T23:00:10.626Z,76.54
2018-04-09T23:02:38.254Z,76.83
2018-04-09T23:05:05.834Z,77.07
2018-04-09T23:07:33.519Z,77.18
2018-04-09T23:10:01.106Z,77.32
2018-04-09T23:12:28.691Z,77.30
2018-04-09T23:14:56.274Z,77.29
2018-04-09T23:17:24.456Z,77.45
2018-04-09T23:19:52.049Z,77.66
2018-04-09T23:22:31.480Z,78.02
2018-04-09T23:24:59.065Z,77.97
2018-04-09T23:27:26.648Z,78.00
2018-04-09T23:29:54.233Z,77.99
2018-04-09T23:32:21.848Z,78.01
2018-04-09T23:34:49.472Z,78.22
2018-04-09T23:37:17.053Z,78.70
2018-04-09T23:39:44.660Z,78.70
2018-04-09T23:42:12.244Z,78.59
2018-04-09T23:44:39.857Z,78.79
2018-04-09T23:47:07.442Z,78.62
2018-04-09T23:49:35.058Z,78.50
2018-04-09T23:52:02.641Z,78.64
2018-04-09T23:54:30.248Z,78.98
2018-04-09T23:56:57.824Z,78.89
2018-04-09T23:59:25.408Z,78.95
